createdAt,value
2023-07-01T00:00:11.584Z,23.89
2023-07-01T00:02:49.901Z,23.87
2023-07-01T00:05:19.525Z,23.84
2023-07-01T00:07:47.619Z,23.73
2023-07-01T00:10:15.763Z,23.83
2023-07-01T00:12:43.795Z,23.72
2023-07-01T00:15:11.856Z,23.75
2023-07-01T00:17:39.952Z,23.88
2023-07-01T00:20:08.854Z,23.82
2023-07-01T00:22:38.332Z,23.88
2023-07-01T00:25:07.054Z,23.85
2023-07-01T00:27:35.127Z,23.92
2023-07-01T00:30:03.175Z,23.85
2023-07-01T00:32:31.320Z,23.82
2023-07-01T00:34:59.407Z,23.79
2023-07-01T00:37:28.913Z,23.72
2023-07-01T00:39:58.445Z,23.81
2023-07-01T00:42:26.515Z,23.85
2023-07-01T00:44:54.581Z,23.80
2023-07-01T00:47:22.642Z,23.76
2023-07-01T00:49:51.035Z,23.84
2023-07-01T00:52:19.303Z,23.74
2023-07-01T00:54:47.397Z,23.83
2023-07-01T00:57:17.099Z,23.76
2023-07-01T00:59:45.208Z,23.75
2023-07-01T01:02:20.330Z,23.62
2023-07-01T01:05:02.652Z,23.70
2023-07-01T01:07:35.652Z,23.80
2023-07-01T01:10:09.569Z,23.74
2023-07-01T01:12:43.103Z,23.83
2023-07-01T01:15:12.843Z,23.91
2023-07-01T01:17:43.808Z,23.84
2023-07-01T01:20:17.498Z,23.97
2023-07-01T01:22:55.428Z,23.86
2023-07-01T01:25:31.159Z,23.76
2023-07-01T01:28:01.604Z,23.81
2023-07-01T01:30:32.838Z,23.95
2023-07-01T01:33:01.314Z,23.79
2023-07-01T01:35:29.717Z,23.85
2023-07-01T01:38:02.650Z,23.80
2023-07-01T01:40:35.709Z,23.86
2023-07-01T01:43:10.976Z,23.89
2023-07-01T01:45:39.869Z,23.86
2023-07-01T01:48:08.633Z,23.91
2023-07-01T01:50:38.721Z,23.97
2023-07-01T01:53:07.994Z,23.87
2023-07-01T01:55:36.605Z,23.96
2023-07-01T01:58:06.187Z,23.91
2023-07-01T02:00:35.724Z,23.79
2023-07-01T02:03:04.164Z,23.85
2023-07-01T02:05:32.469Z,23.79
2023-07-01T02:08:03.397Z,23.75
2023-07-01T02:10:33.668Z,23.76
2023-07-01T02:13:02.156Z,23.73
2023-07-01T02:15:31.697Z,23.66
2023-07-01T02:18:00.282Z,23.71
2023-07-01T02:20:28.346Z,23.72
2023-07-01T02:22:56.407Z,23.70
2023-07-01T02:25:24.822Z,23.60
2023-07-01T02:27:52.940Z,23.71
2023-07-01T02:30:20.976Z,23.55
2023-07-01T02:32:50.737Z,23.35
2023-07-01T02:35:18.816Z,23.13
2023-07-01T02:37:47.293Z,23.01
2023-07-01T02:40:15.487Z,23.34
2023-07-01T02:42:43.652Z,23.45
2023-07-01T02:45:12.632Z,23.22
2023-07-01T02:47:40.763Z,23.40
2023-07-01T02:50:11.287Z,23.41
2023-07-01T02:52:39.387Z,23.21
2023-07-01T02:55:08.580Z,23.23
2023-07-01T02:57:36.749Z,23.15
2023-07-01T03:00:09.123Z,22.82
2023-07-01T03:02:37.317Z,22.76
2023-07-01T03:05:06.566Z,22.42
2023-07-01T03:07:36.053Z,22.33
2023-07-01T03:10:04.253Z,22.29
2023-07-01T03:12:32.372Z,22.14
2023-07-01T03:15:00.475Z,22.04
2023-07-01T03:17:28.667Z,21.82
2023-07-01T03:19:56.805Z,21.81
2023-07-01T03:22:25.073Z,22.05
2023-07-01T03:24:54.500Z,21.95
2023-07-01T03:27:22.559Z,21.97
2023-07-01T03:29:50.600Z,22.04
2023-07-01T03:32:18.636Z,21.94
2023-07-01T03:34:46.716Z,22.08
2023-07-01T03:37:14.736Z,21.95
2023-07-01T03:39:42.800Z,21.94
2023-07-01T03:42:12.229Z,21.92
2023-07-01T03:44:40.245Z,21.84
2023-07-01T03:47:08.347Z,21.85
2023-07-01T03:49:36.374Z,21.79
2023-07-01T03:52:05.099Z,21.85
2023-07-01T03:54:33.212Z,21.84
2023-07-01T03:57:01.225Z,21.79
2023-07-01T03:59:30.626Z,21.90
2023-07-01T04:01:58.711Z,21.95
2023-07-01T04:04:26.809Z,21.73
2023-07-01T04:06:55.988Z,21.83
2023-07-01T04:09:24.583Z,21.98
2023-07-01T04:11:53.341Z,22.05
2023-07-01T04:14:21.363Z,21.92
2023-07-01T04:16:52.031Z,21.98
2023-07-01T04:19:20.270Z,22.18
2023-07-01T04:21:48.298Z,21.91
2023-07-01T04:24:16.446Z,21.91
2023-07-01T04:26:45.213Z,21.93
2023-07-01T04:29:14.010Z,21.94
2023-07-01T04:31:42.188Z,21.93
2023-07-01T04:34:11.633Z,22.03
2023-07-01T04:36:39.669Z,22.06
2023-07-01T04:39:07.766Z,22.03
2023-07-01T04:41:35.885Z,21.89
2023-07-01T04:44:04.456Z,21.75
2023-07-01T04:46:33.638Z,21.87
2023-07-01T04:49:01.828Z,22.05
2023-07-01T04:51:31.400Z,21.91
2023-07-01T04:54:02.106Z,21.97
2023-07-01T04:56:30.219Z,22.02
2023-07-01T04:58:58.277Z,21.82
2023-07-01T05:01:26.507Z,22.01
2023-07-01T05:03:54.829Z,21.97
2023-07-01T05:06:22.988Z,21.74
2023-07-01T05:08:52.912Z,21.73
2023-07-01T05:11:20.991Z,21.68
2023-07-01T05:13:49.050Z,21.63
2023-07-01T05:16:17.198Z,21.81
2023-07-01T05:18:45.316Z,21.70
2023-07-01T05:21:13.340Z,21.63
2023-07-01T05:23:41.404Z,21.66
2023-07-01T05:26:10.896Z,21.49
2023-07-01T05:28:39.016Z,21.83
2023-07-01T05:31:07.040Z,21.73
2023-07-01T05:33:35.373Z,21.51
2023-07-01T05:36:03.560Z,21.53
2023-07-01T05:38:31.908Z,21.54
2023-07-01T05:41:00.256Z,21.88
2023-07-01T05:43:30.256Z,21.69
2023-07-01T05:45:58.624Z,21.63
2023-07-01T05:48:26.999Z,21.78
2023-07-01T05:50:55.268Z,22.01
2023-07-01T05:53:23.618Z,22.17
2023-07-01T05:55:52.129Z,22.01
2023-07-01T05:58:20.413Z,21.88
2023-07-01T06:00:51.454Z,21.98
2023-07-01T06:03:19.994Z,22.08
2023-07-01T06:05:48.365Z,21.99
2023-07-01T06:08:16.677Z,21.94
2023-07-01T06:10:45.262Z,21.97
2023-07-01T06:13:13.815Z,22.09
2023-07-01T06:15:42.103Z,21.99
2023-07-01T06:18:11.857Z,22.05
2023-07-01T06:20:40.321Z,22.03
2023-07-01T06:23:08.583Z,22.01
2023-07-01T06:25:36.956Z,22.10
2023-07-01T06:28:05.438Z,22.09
2023-07-01T06:30:33.743Z,22.09
2023-07-01T06:33:02.246Z,22.18
2023-07-01T06:35:32.038Z,22.11
2023-07-01T06:38:00.508Z,21.97
2023-07-01T06:40:28.932Z,22.28
2023-07-01T06:42:57.269Z,22.18
2023-07-01T06:45:25.586Z,22.12
2023-07-01T06:47:53.902Z,22.17
2023-07-01T06:50:22.245Z,22.13
2023-07-01T06:52:52.057Z,22.28
2023-07-01T06:55:20.693Z,22.23
2023-07-01T06:57:49.015Z,22.51
2023-07-01T07:00:17.613Z,22.67
2023-07-01T07:02:45.910Z,22.56
2023-07-01T07:05:14.264Z,22.65
2023-07-01T07:07:42.561Z,22.50
2023-07-01T07:10:12.723Z,22.55
2023-07-01T07:12:41.064Z,22.33
2023-07-01T07:15:10.401Z,22.66
2023-07-01T07:17:39.361Z,22.57
2023-07-01T07:20:09.271Z,22.70
2023-07-01T07:22:37.696Z,22.54
2023-07-01T07:25:06.509Z,22.56
2023-07-01T07:27:36.267Z,22.39
2023-07-01T07:30:05.831Z,22.54
2023-07-01T07:32:34.354Z,22.17
2023-07-01T07:35:02.647Z,22.27
2023-07-01T07:37:31.215Z,22.36
2023-07-01T07:40:00.690Z,22.39
2023-07-01T07:42:29.391Z,22.35
2023-07-01T07:44:59.089Z,22.40
2023-07-01T07:47:28.457Z,22.38
2023-07-01T07:49:56.943Z,22.27
2023-07-01T07:52:25.487Z,22.44
2023-07-01T07:54:53.895Z,22.19
2023-07-01T07:57:22.303Z,22.28
2023-07-01T07:59:50.632Z,22.58
2023-07-01T08:02:20.287Z,22.40
2023-07-01T08:04:48.648Z,22.40
2023-07-01T08:07:17.119Z,22.36
2023-07-01T08:09:45.420Z,22.60
2023-07-01T08:12:14.810Z,22.37
2023-07-01T08:14:43.204Z,22.44
2023-07-01T08:17:11.590Z,22.43
2023-07-01T08:19:41.339Z,22.38
2023-07-01T08:22:09.664Z,22.64
2023-07-01T08:24:37.988Z,22.44
2023-07-01T08:27:06.739Z,22.47
2023-07-01T08:29:35.045Z,22.54
2023-07-01T08:32:03.486Z,22.66
2023-07-01T08:34:31.752Z,22.67
2023-07-01T08:37:03.532Z,22.70
2023-07-01T08:39:31.991Z,22.73
2023-07-01T08:42:05.529Z,22.62
2023-07-01T08:44:34.072Z,22.76
2023-07-01T08:47:03.524Z,22.99
2023-07-01T08:49:32.074Z,22.86
2023-07-01T08:52:06.646Z,23.11
2023-07-01T08:54:36.293Z,23.14
2023-07-01T08:57:05.192Z,22.94
2023-07-01T08:59:34.265Z,23.05
2023-07-01T09:02:02.991Z,23.17
2023-07-01T09:04:32.168Z,23.14
2023-07-01T09:07:02.077Z,23.29
2023-07-01T09:09:30.411Z,23.21
2023-07-01T09:11:58.800Z,23.28
2023-07-01T09:14:27.106Z,23.24
2023-07-01T09:16:55.448Z,23.28
2023-07-01T09:19:24.425Z,23.41
2023-07-01T09:21:52.990Z,23.09
2023-07-01T09:24:39.996Z,23.39
2023-07-01T09:27:10.261Z,23.39
2023-07-01T09:29:41.721Z,23.37
2023-07-01T09:32:10.824Z,23.16
2023-07-01T09:34:57.177Z,23.51
2023-07-01T09:37:26.346Z,23.53
2023-07-01T09:39:57.574Z,23.57
2023-07-01T09:42:25.935Z,23.59
2023-07-01T09:45:10.142Z,23.17
2023-07-01T09:47:39.150Z,23.68
2023-07-01T09:50:09.056Z,23.76
2023-07-01T09:52:38.466Z,23.86
2023-07-01T09:55:09.883Z,23.61
2023-07-01T09:57:39.357Z,23.77
2023-07-01T10:00:10.880Z,23.86
2023-07-01T10:02:39.653Z,23.87
2023-07-01T10:05:08.551Z,23.96
2023-07-01T10:07:37.423Z,23.80
2023-07-01T10:10:08.157Z,23.86
2023-07-01T10:12:38.578Z,23.81
2023-07-01T10:15:12.208Z,23.83
2023-07-01T10:17:49.221Z,23.92
2023-07-01T10:20:28.660Z,23.92
2023-07-01T10:22:57.432Z,23.88
2023-07-01T10:25:36.833Z,23.76
2023-07-01T10:28:06.731Z,24.03
2023-07-01T10:31:13.304Z,23.95
2023-07-01T10:33:58.601Z,23.82
2023-07-01T10:36:27.615Z,23.96
2023-07-01T10:39:33.334Z,23.74
2023-07-01T10:42:03.138Z,23.77
2023-07-01T10:44:31.509Z,23.94
2023-07-01T10:47:18.630Z,24.01
2023-07-01T10:50:07.254Z,24.25
2023-07-01T10:52:51.052Z,24.46
2023-07-01T10:55:45.877Z,24.23
2023-07-01T10:58:24.737Z,24.30
2023-07-01T11:00:54.595Z,24.53
2023-07-01T11:03:55.429Z,24.51
2023-07-01T11:06:23.870Z,24.40
2023-07-01T11:08:53.450Z,24.87
2023-07-01T11:11:26.874Z,24.72
2023-07-01T11:14:14.709Z,24.60
2023-07-01T11:16:43.329Z,24.76
2023-07-01T11:19:16.739Z,24.65
2023-07-01T11:21:45.885Z,24.89
2023-07-01T11:24:15.274Z,25.14
2023-07-01T11:26:45.048Z,25.24
2023-07-01T11:29:19.752Z,25.19
2023-07-01T11:31:58.342Z,25.07
2023-07-01T11:34:27.131Z,25.24
2023-07-01T11:36:56.421Z,25.12
2023-07-01T11:39:24.988Z,24.95
2023-07-01T11:41:55.104Z,25.13
2023-07-01T11:44:26.423Z,25.10
2023-07-01T11:46:55.481Z,25.01
2023-07-01T11:49:26.232Z,25.10
2023-07-01T11:51:56.221Z,24.92
2023-07-01T11:54:26.873Z,24.88
2023-07-01T11:57:09.809Z,24.80
2023-07-01T11:59:39.800Z,24.72
2023-07-01T12:02:08.370Z,24.89
2023-07-01T12:04:37.521Z,25.08
2023-07-01T12:07:10.394Z,24.89
2023-07-01T12:09:39.521Z,25.05
2023-07-01T12:12:08.275Z,25.00
2023-07-01T12:14:36.845Z,24.90
2023-07-01T12:17:06.535Z,24.99
2023-07-01T12:19:34.809Z,24.92
2023-07-01T12:22:03.185Z,24.83
2023-07-01T12:24:32.712Z,24.94
2023-07-01T12:27:03.833Z,24.90
2023-07-01T12:29:31.997Z,24.82
2023-07-01T12:32:00.462Z,24.76
2023-07-01T12:34:30.977Z,24.78
2023-07-01T12:36:59.612Z,24.73
2023-07-01T12:39:27.996Z,24.71
2023-07-01T12:41:56.613Z,24.70
2023-07-01T12:44:24.761Z,24.77
2023-07-01T12:46:53.232Z,24.83
2023-07-01T12:49:22.473Z,24.97
2023-07-01T12:51:52.394Z,25.03
2023-07-01T12:54:20.746Z,25.03
2023-07-01T12:56:48.949Z,24.78
2023-07-01T12:59:17.145Z,24.47
2023-07-01T13:01:47.251Z,24.75
2023-07-01T13:04:20.943Z,24.99
2023-07-01T13:06:52.665Z,25.19
2023-07-01T13:09:42.616Z,25.09
2023-07-01T13:12:11.051Z,25.13
2023-07-01T13:14:39.254Z,25.00
2023-07-01T13:17:08.033Z,24.99
2023-07-01T13:19:36.655Z,25.18
2023-07-01T13:22:06.526Z,25.36
2023-07-01T13:24:41.036Z,25.43
2023-07-01T13:27:12.795Z,25.61
2023-07-01T13:29:41.222Z,25.94
2023-07-01T13:32:09.655Z,26.09
2023-07-01T13:34:42.621Z,26.01
2023-07-01T13:37:14.865Z,25.84
2023-07-01T13:39:44.679Z,25.90
2023-07-01T13:42:13.448Z,25.79
2023-07-01T13:44:41.985Z,25.68
2023-07-01T13:47:14.363Z,25.65
2023-07-01T13:49:42.928Z,25.60
2023-07-01T13:52:11.051Z,25.64
2023-07-01T13:54:41.357Z,25.75
2023-07-01T13:57:22.502Z,26.05
2023-07-01T13:59:50.557Z,25.93
2023-07-01T14:02:18.727Z,25.90
2023-07-01T14:04:48.173Z,25.86
2023-07-01T14:07:18.274Z,26.08
2023-07-01T14:09:49.416Z,26.09
2023-07-01T14:12:19.528Z,26.07
2023-07-01T14:14:48.188Z,26.34
2023-07-01T14:17:19.657Z,26.36
2023-07-01T14:19:54.871Z,26.41
2023-07-01T14:22:23.017Z,26.62
2023-07-01T14:24:52.873Z,26.57
2023-07-01T14:27:28.128Z,26.54
2023-07-01T14:29:56.202Z,26.52
2023-07-01T14:32:24.361Z,26.20
2023-07-01T14:34:52.453Z,26.19
2023-07-01T14:37:20.485Z,26.05
2023-07-01T14:39:54.714Z,25.96
2023-07-01T14:42:27.035Z,25.89
2023-07-01T14:44:55.302Z,25.96
2023-07-01T14:47:23.482Z,26.22
2023-07-01T14:49:51.609Z,26.36
2023-07-01T14:52:20.878Z,26.39
2023-07-01T14:54:50.640Z,26.50
2023-07-01T14:57:21.515Z,26.31
2023-07-01T14:59:51.107Z,26.43
2023-07-01T15:02:19.733Z,26.31
2023-07-01T15:04:48.103Z,26.28
2023-07-01T15:07:16.185Z,26.12
2023-07-01T15:09:44.215Z,26.15
2023-07-01T15:12:12.292Z,25.89
2023-07-01T15:14:40.338Z,26.35
2023-07-01T15:17:09.894Z,26.55
2023-07-01T15:19:38.176Z,26.69
2023-07-01T15:22:06.919Z,26.40
2023-07-01T15:24:35.004Z,26.45
2023-07-01T15:27:03.527Z,26.48
2023-07-01T15:29:31.621Z,26.09
2023-07-01T15:31:59.709Z,25.97
2023-07-01T15:34:29.360Z,26.01
2023-07-01T15:36:57.548Z,25.93
2023-07-01T15:39:25.830Z,26.04
2023-07-01T15:41:53.957Z,26.23
2023-07-01T15:44:22.043Z,26.19
2023-07-01T15:46:50.116Z,26.36
2023-07-01T15:49:18.401Z,26.31
2023-07-01T15:51:47.865Z,26.11
2023-07-01T15:54:15.907Z,26.17
2023-07-01T15:56:43.980Z,25.95
2023-07-01T15:59:12.149Z,25.93
2023-07-01T16:01:40.259Z,25.62
2023-07-01T16:04:08.527Z,25.39
2023-07-01T16:06:37.407Z,25.53
2023-07-01T16:09:50.418Z,25.33
2023-07-01T16:12:30.829Z,25.23
2023-07-01T16:15:03.022Z,25.49
2023-07-01T16:17:32.207Z,25.60
2023-07-01T16:20:00.389Z,25.40
2023-07-01T16:22:28.611Z,25.49
2023-07-01T16:25:00.294Z,25.33
2023-07-01T16:27:28.557Z,25.56
2023-07-01T16:30:02.017Z,25.17
2023-07-01T16:32:32.186Z,25.40
2023-07-01T16:35:02.366Z,25.25
2023-07-01T16:37:30.915Z,25.66
2023-07-01T16:40:00.787Z,25.66
2023-07-01T16:42:37.880Z,25.82
2023-07-01T16:45:11.069Z,25.91
2023-07-01T16:47:39.202Z,25.78
2023-07-01T16:50:17.255Z,25.62
2023-07-01T16:52:45.435Z,25.73
2023-07-01T16:55:37.658Z,25.65
2023-07-01T16:58:05.755Z,25.62
2023-07-01T17:00:33.947Z,25.40
2023-07-01T17:03:17.017Z,25.43
2023-07-01T17:05:45.361Z,25.44
2023-07-01T17:08:22.178Z,25.38
2023-07-01T17:10:51.986Z,25.37
2023-07-01T17:13:40.084Z,25.40
2023-07-01T17:16:09.166Z,25.49
2023-07-01T17:18:37.796Z,25.58
2023-07-01T17:21:05.998Z,25.53
2023-07-01T17:23:34.082Z,25.38
2023-07-01T17:26:03.467Z,25.35
2023-07-01T17:28:31.552Z,25.23
2023-07-01T17:30:59.669Z,25.28
2023-07-01T17:33:27.814Z,25.30
2023-07-01T17:35:55.829Z,25.14
2023-07-01T17:38:23.905Z,24.80
2023-07-01T17:40:51.921Z,24.84
2023-07-01T17:43:21.339Z,24.90
2023-07-01T17:45:49.600Z,24.65
2023-07-01T17:48:17.914Z,24.58
2023-07-01T17:50:45.951Z,24.59
2023-07-01T17:53:13.963Z,24.53
2023-07-01T17:55:42.011Z,24.43
2023-07-01T17:58:10.052Z,24.58
2023-07-01T18:00:39.498Z,24.55
2023-07-01T18:03:07.618Z,24.30
2023-07-01T18:05:35.763Z,24.47
2023-07-01T18:08:03.871Z,24.33
2023-07-01T18:10:31.933Z,24.53
2023-07-01T18:12:59.980Z,24.55
2023-07-01T18:15:28.032Z,24.41
2023-07-01T18:17:57.504Z,24.15
2023-07-01T18:20:25.599Z,24.15
2023-07-01T18:22:53.660Z,24.15
2023-07-01T18:25:21.758Z,24.13
2023-07-01T18:27:49.779Z,24.32
2023-07-01T18:30:18.284Z,24.35
2023-07-01T18:32:46.597Z,24.32
2023-07-01T18:35:16.940Z,24.32
2023-07-01T18:37:46.981Z,24.34
2023-07-01T18:40:16.048Z,24.35
2023-07-01T18:42:44.416Z,24.28
2023-07-01T18:45:13.553Z,24.16
2023-07-01T18:47:43.511Z,24.28
2023-07-01T18:50:12.490Z,24.12
2023-07-01T18:52:42.688Z,24.23
2023-07-01T18:55:11.290Z,24.20
2023-07-01T18:57:39.583Z,24.23
2023-07-01T19:00:09.382Z,24.20
2023-07-01T19:02:37.631Z,24.19
2023-07-01T19:05:06.660Z,24.17
2023-07-01T19:07:34.730Z,24.16
2023-07-01T19:10:05.516Z,23.91
2023-07-01T19:12:33.732Z,24.13
2023-07-01T19:15:01.924Z,24.12
2023-07-01T19:17:30.162Z,24.02
2023-07-01T19:19:58.340Z,24.20
2023-07-01T19:22:29.366Z,23.96
2023-07-01T19:24:57.774Z,23.91
2023-07-01T19:27:30.423Z,23.82
2023-07-01T19:30:12.589Z,23.97
2023-07-01T19:32:42.115Z,23.97
2023-07-01T19:35:11.085Z,23.96
2023-07-01T19:37:39.673Z,23.97
2023-07-01T19:40:08.787Z,23.91
2023-07-01T19:42:38.576Z,23.76
2023-07-01T19:45:07.830Z,23.82
2023-07-01T19:47:39.947Z,23.83
2023-07-01T19:50:09.383Z,23.90
2023-07-01T19:52:37.842Z,23.99
2023-07-01T19:55:07.188Z,23.87
2023-07-01T19:57:35.428Z,23.88
2023-07-01T20:00:08.777Z,24.01
2023-07-01T20:02:38.185Z,23.92
2023-07-01T20:05:07.099Z,24.01
2023-07-01T20:07:36.125Z,23.95
2023-07-01T20:10:09.773Z,23.88
2023-07-01T20:12:48.606Z,23.84
2023-07-01T20:15:18.221Z,23.91
2023-07-01T20:17:46.353Z,23.99
2023-07-01T20:20:14.442Z,24.01
2023-07-01T20:22:42.483Z,23.88
2023-07-01T20:25:10.954Z,23.77
2023-07-01T20:27:38.993Z,23.72
2023-07-01T20:30:08.912Z,23.75
2023-07-01T20:32:38.797Z,23.51
2023-07-01T20:35:07.955Z,23.76
2023-07-01T20:37:36.053Z,23.69
2023-07-01T20:40:04.946Z,23.85
2023-07-01T20:42:33.280Z,23.86
2023-07-01T20:45:01.330Z,23.71
2023-07-01T20:47:29.448Z,23.80
2023-07-01T20:49:59.569Z,23.77
2023-07-01T20:52:27.848Z,23.73
2023-07-01T20:54:56.008Z,23.69
2023-07-01T20:57:24.042Z,23.62
2023-07-01T20:59:52.095Z,23.79
2023-07-01T21:02:20.228Z,23.79
2023-07-01T21:04:48.332Z,23.72
2023-07-01T21:07:19.150Z,23.82
2023-07-01T21:09:47.255Z,23.80
2023-07-01T21:12:15.256Z,23.74
2023-07-01T21:14:43.355Z,23.79
2023-07-01T21:17:11.446Z,23.75
2023-07-01T21:19:39.597Z,23.65
2023-07-01T21:22:07.724Z,23.67
2023-07-01T21:24:37.173Z,23.72
2023-07-01T21:27:05.716Z,23.67
2023-07-01T21:29:33.760Z,23.68
2023-07-01T21:32:01.839Z,23.60
2023-07-01T21:34:31.775Z,23.62
2023-07-01T21:36:59.893Z,23.65
2023-07-01T21:39:28.472Z,23.51
2023-07-01T21:41:57.882Z,23.47
2023-07-01T21:44:25.916Z,23.52
2023-07-01T21:46:54.091Z,23.45
2023-07-01T21:49:22.611Z,23.57
2023-07-01T21:51:50.841Z,23.52
2023-07-01T21:54:21.089Z,23.59
2023-07-01T21:56:50.335Z,23.51
2023-07-01T21:59:20.076Z,23.53
2023-07-01T22:01:48.340Z,23.57
2023-07-01T22:04:16.624Z,23.55
2023-07-01T22:06:46.879Z,23.34
2023-07-01T22:09:16.170Z,23.50
2023-07-01T22:11:44.344Z,23.44
2023-07-01T22:14:13.187Z,23.36
2023-07-01T22:16:42.888Z,23.31
2023-07-01T22:19:11.009Z,23.36
2023-07-01T22:21:40.833Z,23.38
2023-07-01T22:24:09.385Z,23.37
2023-07-01T22:26:37.410Z,23.42
2023-07-01T22:29:05.623Z,23.46
2023-07-01T22:31:33.765Z,23.26
2023-07-01T22:34:03.243Z,23.25
2023-07-01T22:36:31.294Z,23.24
2023-07-01T22:38:59.293Z,23.17
2023-07-01T22:41:27.379Z,23.15
2023-07-01T22:43:55.467Z,23.20
2023-07-01T22:46:23.789Z,23.36
2023-07-01T22:48:51.986Z,23.28
2023-07-01T22:51:21.393Z,23.26
2023-07-01T22:53:49.492Z,23.32
2023-07-01T22:56:17.664Z,23.15
2023-07-01T22:58:45.744Z,23.10
2023-07-01T23:01:13.776Z,23.10
2023-07-01T23:03:41.987Z,22.96
2023-07-01T23:06:10.252Z,23.05
2023-07-01T23:08:39.692Z,23.02
2023-07-01T23:11:07.829Z,22.77
2023-07-01T23:13:35.886Z,22.83
2023-07-01T23:16:04.097Z,22.83
2023-07-01T23:18:32.242Z,22.73
2023-07-01T23:21:00.371Z,22.62
2023-07-01T23:23:28.462Z,22.67
2023-07-01T23:25:57.903Z,22.69
2023-07-01T23:28:25.944Z,22.80
2023-07-01T23:30:54.254Z,22.76
2023-07-01T23:33:22.900Z,22.64
2023-07-01T23:35:51.038Z,22.79
2023-07-01T23:38:19.093Z,22.70
2023-07-01T23:40:47.384Z,22.76
2023-07-01T23:43:16.924Z,22.84
2023-07-01T23:45:44.955Z,22.75
2023-07-01T23:48:12.972Z,22.69
2023-07-01T23:50:41.865Z,22.83
2023-07-01T23:53:10.190Z,22.85
2023-07-01T23:55:38.509Z,22.84
2023-07-01T23:58:06.838Z,22.72
